Milan, Italy

7:57 AM CEST on August 31, 2015 (GMT +0200)
ILOMBARD91 | | Change Station
CLOSE
Current Station
Personal Weather Station
Location: SOMMA LOMBARDO, LOMBARDIA
Elevation: 935 ft
Nearby Weather Stations

Elev 935 ft 45.69 °N, 8.69 °E | Updated 1 minute ago

Clear
Clear
65.3 °F
Feels Like 65.3 °F
N
2.0
Wind Variable Wind from North
Gusts 2.0 mph

Today
High -- | Low -- °F
--% Chance of Precip.
Yesterday
High -- | Low -- °F
Precip. -- in
6:44 AM 8:05 PM
Full, 97% visible
Pressure 30.12 in
Visibility -9999.0 miles
Clouds
Dew Point 61 °F
Humidity 85%
Rainfall 0.00 in
Snow Depth Not available.
UV Not available.
Pollen Not available.
Air Quality Not available.
Flu Activity Not available.
METAR LSZA 310550Z VRB01KT CAVOK 16/15 Q1020 NOSIG
Pressure 30.12 in
Visibility -9999.0 miles
Clouds
Dew Point 61 °F
Humidity 85%
Rainfall 0.00 in
Snow Depth Not available.
UV Not available.
Pollen Not available.
Air Quality Not available.
Flu Activity Not available.
METAR LSZA 310550Z VRB01KT CAVOK 16/15 Q1020 NOSIG

10-Day Weather Forecast

×

Almanac

Astronomy

Aug. 31, 2015 Rise Set
Actual Time
Civil Twilight
Nautical Twilight
Astronomical Twilight
Moon
Length of Visible Light
Length of Day
Tomorrow will be .
, % of the Moon is Illuminated

Today's Extremes

Country Highs Country Lows

Community

WunderPhotos

Upload Photos

1,851,215 photos uploaded!

WunderBlogs® & News

Nearby

Air Quality

  Air Quality AQ Index Pollutant
Not available.

Snow Depth

Station Depth Elevation

Earthquake Activity

City Distance Mag. Time & Date
Minimum magnitude displayed is 2.5.

Coastal Water Temperatures

Place Temperature

Stations

Nearby Weather Stations

Station Location Temp. Windchill Dew Point Humidity Wind Precip. Elev Updated Type